createdAt,value
2019-06-15T00:02:05.551Z,93.39
2019-06-15T00:04:33.520Z,94.28
2019-06-15T00:06:59.766Z,94.51
2019-06-15T00:09:25.999Z,93.89
2019-06-15T00:11:52.446Z,93.19
2019-06-15T00:14:18.708Z,93.51
2019-06-15T00:16:44.849Z,94.10
2019-06-15T00:19:11.079Z,93.76
2019-06-15T00:21:38.372Z,93.83
2019-06-15T00:24:05.420Z,93.94
2019-06-15T00:26:31.595Z,94.42
2019-06-15T00:28:59.632Z,94.01
2019-06-15T00:31:25.906Z,93.56
2019-06-15T00:33:53.945Z,93.67
2019-06-15T00:36:20.217Z,93.84
2019-06-15T00:38:48.247Z,93.34
2019-06-15T00:41:15.652Z,93.48
2019-06-15T00:43:41.909Z,93.55
2019-06-15T00:46:08.149Z,93.68
2019-06-15T00:48:34.444Z,93.45
2019-06-15T00:51:00.579Z,93.92
2019-06-15T00:53:26.807Z,93.96
2019-06-15T00:55:53.058Z,94.49
2019-06-15T00:58:19.302Z,94.37
2019-06-15T01:00:45.443Z,94.73
2019-06-15T01:03:11.681Z,94.33
2019-06-15T01:05:37.923Z,94.00
2019-06-15T01:08:04.151Z,93.74
2019-06-15T01:10:30.575Z,94.37
2019-06-15T01:12:56.716Z,93.73
2019-06-15T01:15:22.947Z,93.43
2019-06-15T01:17:49.385Z,94.16
2019-06-15T01:20:16.122Z,95.00
2019-06-15T01:22:42.348Z,95.06
2019-06-15T01:25:09.133Z,96.20
2019-06-15T01:27:37.571Z,94.84
2019-06-15T01:30:06.592Z,95.30
2019-06-15T01:32:32.876Z,95.72
2019-06-15T01:35:00.454Z,96.02
2019-06-15T01:37:27.001Z,96.45
2019-06-15T01:39:53.222Z,95.77
2019-06-15T01:42:19.495Z,95.07
2019-06-15T01:44:45.828Z,95.83
2019-06-15T01:47:12.070Z,95.27
2019-06-15T01:49:38.298Z,96.02
2019-06-15T01:52:04.567Z,97.10
2019-06-15T01:54:32.608Z,96.42
2019-06-15T01:56:58.838Z,97.08
2019-06-15T01:59:25.119Z,97.54
2019-06-15T02:01:51.344Z,97.49
2019-06-15T02:04:17.887Z,97.60
2019-06-15T02:06:44.137Z,97.76
2019-06-15T02:09:10.730Z,97.71
2019-06-15T02:11:36.951Z,97.98
2019-06-15T02:14:04.291Z,98.45
2019-06-15T02:16:30.579Z,98.10
2019-06-15T02:18:56.795Z,97.58
2019-06-15T02:21:23.050Z,97.30
2019-06-15T02:23:49.280Z,98.43
2019-06-15T02:26:15.536Z,97.47
2019-06-15T02:28:43.045Z,97.89
2019-06-15T02:31:09.172Z,97.59
2019-06-15T02:33:35.309Z,97.25
2019-06-15T02:36:01.453Z,97.44
2019-06-15T02:38:27.689Z,96.70
2019-06-15T02:40:53.928Z,97.20
2019-06-15T02:43:20.176Z,96.22
2019-06-15T02:45:51.745Z,96.45
2019-06-15T02:48:18.132Z,96.67
2019-06-15T02:50:44.598Z,96.49
2019-06-15T02:53:12.663Z,96.60
2019-06-15T02:55:50.133Z,96.00
2019-06-15T02:58:07.354Z,96.00
2019-06-15T03:00:46.064Z,95.71
2019-06-15T03:03:12.214Z,95.90
2019-06-15T03:05:38.796Z,96.37
2019-06-15T03:08:05.046Z,96.08
2019-06-15T03:10:32.003Z,95.55
2019-06-15T03:12:59.342Z,95.45
2019-06-15T03:15:25.597Z,96.07
2019-06-15T03:17:51.821Z,96.54
2019-06-15T03:20:18.222Z,96.08
2019-06-15T03:22:44.496Z,95.86
2019-06-15T03:25:11.289Z,96.61
2019-06-15T03:27:37.534Z,96.64
2019-06-15T03:30:06.073Z,97.03
2019-06-15T03:32:32.223Z,96.88
2019-06-15T03:35:00.483Z,97.19
2019-06-15T03:37:27.097Z,96.67
2019-06-15T03:39:53.336Z,96.46
2019-06-15T03:42:19.675Z,96.78
2019-06-15T03:44:46.211Z,96.96
2019-06-15T03:47:13.407Z,96.31
2019-06-15T03:49:39.655Z,96.01
2019-06-15T03:52:07.687Z,96.29
2019-06-15T03:54:34.242Z,96.42
2019-06-15T03:57:00.361Z,96.60
2019-06-15T03:59:26.653Z,96.83
2019-06-15T04:01:52.882Z,96.34
2019-06-15T04:04:19.150Z,96.53
2019-06-15T04:06:45.292Z,95.89
2019-06-15T04:09:11.524Z,95.91
2019-06-15T04:11:37.749Z,96.09
2019-06-15T04:14:04.296Z,95.54
2019-06-15T04:16:32.343Z,95.79
2019-06-15T04:18:58.476Z,95.59
2019-06-15T04:21:26.042Z,95.85
2019-06-15T04:23:52.317Z,95.67
2019-06-15T04:26:18.545Z,95.49
2019-06-15T04:28:44.807Z,95.46
2019-06-15T04:31:11.033Z,95.29
2019-06-15T04:33:37.466Z,95.24
2019-06-15T04:36:05.525Z,95.12
2019-06-15T04:38:31.755Z,95.22
2019-06-15T04:40:57.979Z,95.57
2019-06-15T04:43:24.104Z,95.34
2019-06-15T04:45:50.581Z,95.75
2019-06-15T04:48:16.723Z,95.86
2019-06-15T04:50:44.791Z,96.27
2019-06-15T04:53:11.043Z,95.86
2019-06-15T04:55:37.426Z,95.50
2019-06-15T04:58:03.790Z,95.69
2019-06-15T05:00:29.959Z,95.69
2019-06-15T05:02:57.199Z,94.98
2019-06-15T05:05:23.335Z,95.15
2019-06-15T05:07:49.609Z,94.70
2019-06-15T05:10:15.847Z,94.58
2019-06-15T05:12:42.367Z,95.09
2019-06-15T05:15:08.906Z,95.35
2019-06-15T05:17:35.128Z,94.81
2019-06-15T05:20:01.534Z,94.94
2019-06-15T05:22:27.809Z,94.40
2019-06-15T05:24:54.045Z,94.36
2019-06-15T05:27:20.281Z,93.85
2019-06-15T05:29:46.525Z,94.28
2019-06-15T05:32:12.810Z,93.62
2019-06-15T05:34:39.039Z,93.53
2019-06-15T05:37:05.314Z,93.39
2019-06-15T05:39:31.536Z,94.12
2019-06-15T05:41:59.320Z,93.26
2019-06-15T05:44:25.759Z,93.30
2019-06-15T05:46:53.813Z,93.36
2019-06-15T05:49:21.561Z,93.31
2019-06-15T05:51:47.829Z,92.72
2019-06-15T05:54:14.095Z,92.17
2019-06-15T05:56:40.341Z,90.33
2019-06-15T05:59:06.552Z,87.26
2019-06-15T06:01:32.815Z,85.14
2019-06-15T06:04:00.878Z,83.97
2019-06-15T06:06:28.843Z,83.74
2019-06-15T06:08:55.149Z,84.49
2019-06-15T06:11:21.259Z,80.18
2019-06-15T06:13:47.491Z,78.50
2019-06-15T06:16:13.728Z,75.33
2019-06-15T06:18:39.998Z,73.41
2019-06-15T06:21:06.247Z,72.46
2019-06-15T06:23:32.482Z,70.63
2019-06-15T06:25:58.712Z,70.70
2019-06-15T06:28:24.848Z,68.79
2019-06-15T06:30:51.082Z,71.43
2019-06-15T06:33:17.309Z,73.59
2019-06-15T06:35:43.551Z,73.67
2019-06-15T06:38:09.775Z,74.80
2019-06-15T06:40:36.024Z,74.23
2019-06-15T06:43:02.280Z,75.43
2019-06-15T06:45:28.539Z,75.19
2019-06-15T06:47:54.768Z,73.85
2019-06-15T06:50:22.738Z,74.58
2019-06-15T06:52:48.982Z,74.67
2019-06-15T06:55:15.331Z,73.92
2019-06-15T06:57:51.690Z,74.52
2019-06-15T07:00:09.905Z,74.73
2019-06-15T07:02:36.054Z,72.13
2019-06-15T07:05:04.990Z,74.52
2019-06-15T07:07:31.227Z,74.00
2019-06-15T07:09:57.460Z,72.42
2019-06-15T07:12:23.696Z,71.73
2019-06-15T07:14:49.950Z,71.70
2019-06-15T07:17:16.089Z,71.65
2019-06-15T07:19:42.215Z,71.22
2019-06-15T07:22:08.462Z,69.61
2019-06-15T07:24:34.728Z,70.29
2019-06-15T07:27:00.980Z,71.93
2019-06-15T07:29:27.107Z,70.69
2019-06-15T07:31:53.351Z,69.52
2019-06-15T07:34:19.481Z,67.79
2019-06-15T07:36:45.617Z,65.24
2019-06-15T07:39:11.851Z,65.59
2019-06-15T07:41:38.094Z,63.12
2019-06-15T07:44:04.353Z,64.42
2019-06-15T07:46:30.607Z,64.10
2019-06-15T07:48:56.736Z,64.60
2019-06-15T07:51:22.999Z,66.90
2019-06-15T07:53:49.287Z,66.69
2019-06-15T07:56:15.529Z,68.41
2019-06-15T07:58:41.797Z,68.20
2019-06-15T08:01:08.025Z,66.55
2019-06-15T08:03:34.254Z,64.28
2019-06-15T08:06:00.495Z,62.53
2019-06-15T08:08:26.760Z,62.06
2019-06-15T08:10:53.001Z,62.04
2019-06-15T08:13:19.138Z,60.94
2019-06-15T08:15:45.282Z,63.55
2019-06-15T08:18:11.517Z,61.37
2019-06-15T08:20:37.755Z,61.01
2019-06-15T08:23:03.985Z,61.48
2019-06-15T08:25:30.215Z,58.81
2019-06-15T08:27:56.344Z,56.77
2019-06-15T08:30:29.205Z,60.04
2019-06-15T08:32:55.475Z,57.47
2019-06-15T08:35:21.703Z,57.55
2019-06-15T08:37:47.924Z,57.41
2019-06-15T08:40:14.272Z,58.44
2019-06-15T08:42:40.400Z,59.78
2019-06-15T08:45:07.448Z,56.53
2019-06-15T08:47:33.675Z,54.41
2019-06-15T08:49:59.809Z,57.76
2019-06-15T08:52:25.989Z,59.12
2019-06-15T08:54:52.111Z,54.46
2019-06-15T08:57:18.362Z,51.32
2019-06-15T08:59:44.593Z,53.34
2019-06-15T09:02:10.727Z,52.35
2019-06-15T09:04:37.339Z,54.30
2019-06-15T09:07:03.624Z,53.69
2019-06-15T09:09:29.869Z,50.57
2019-06-15T09:11:55.995Z,49.63
2019-06-15T09:14:22.233Z,46.91
2019-06-15T09:16:48.469Z,46.64
2019-06-15T09:19:14.706Z,47.77
2019-06-15T09:21:40.948Z,47.04
2019-06-15T09:24:09.682Z,45.92
2019-06-15T09:26:35.834Z,44.55
2019-06-15T09:29:10.805Z,44.18
2019-06-15T09:31:30.224Z,45.15
2019-06-15T09:33:56.476Z,44.89
2019-06-15T09:36:22.678Z,37.64
2019-06-15T09:38:48.937Z,40.62
2019-06-15T09:41:15.167Z,42.18
2019-06-15T09:43:41.407Z,41.49
2019-06-15T09:46:07.644Z,37.20
2019-06-15T09:48:33.900Z,37.41
2019-06-15T09:51:00.161Z,40.28
2019-06-15T09:53:26.397Z,38.82
2019-06-15T09:55:52.542Z,37.85
2019-06-15T09:58:18.781Z,37.66
2019-06-15T10:00:45.032Z,38.40
2019-06-15T10:03:11.257Z,38.49
2019-06-15T10:05:37.513Z,38.60
2019-06-15T10:08:03.650Z,39.20
2019-06-15T10:10:29.997Z,38.11
2019-06-15T10:12:56.283Z,37.58
2019-06-15T10:15:22.611Z,37.44
2019-06-15T10:17:48.830Z,36.24
2019-06-15T10:20:16.199Z,37.07
2019-06-15T10:22:42.411Z,34.76
2019-06-15T10:25:08.656Z,36.04
2019-06-15T10:27:35.016Z,36.67
2019-06-15T10:30:03.091Z,36.72
2019-06-15T10:32:30.720Z,36.00
2019-06-15T10:34:56.953Z,36.74
2019-06-15T10:37:23.193Z,34.02
2019-06-15T10:39:49.446Z,33.39
2019-06-15T10:42:15.581Z,34.29
2019-06-15T10:44:41.824Z,34.46
2019-06-15T10:47:08.172Z,33.01
2019-06-15T10:49:34.427Z,32.94
2019-06-15T10:52:00.669Z,34.86
2019-06-15T10:54:26.922Z,35.51
2019-06-15T10:56:53.190Z,36.20
2019-06-15T10:59:19.431Z,35.68
2019-06-15T11:01:45.693Z,34.65
2019-06-15T11:04:11.913Z,31.29
2019-06-15T11:06:38.058Z,32.11
2019-06-15T11:09:06.643Z,23.23
2019-06-15T11:11:32.789Z,24.37
2019-06-15T11:13:59.055Z,31.63
2019-06-15T11:16:25.284Z,31.49
2019-06-15T11:18:51.434Z,32.64
2019-06-15T11:21:17.680Z,32.20
2019-06-15T11:23:43.957Z,30.85
2019-06-15T11:26:10.176Z,31.62
2019-06-15T11:28:36.424Z,29.99
2019-06-15T11:31:02.699Z,30.60
2019-06-15T11:33:28.929Z,31.63
2019-06-15T11:35:55.177Z,33.71
2019-06-15T11:38:21.416Z,33.03
2019-06-15T11:40:47.644Z,32.57
2019-06-15T11:43:13.882Z,31.85
2019-06-15T11:45:40.125Z,31.46
2019-06-15T11:48:06.368Z,31.99
2019-06-15T11:50:32.628Z,32.73
2019-06-15T11:52:58.863Z,32.01
2019-06-15T11:55:38.701Z,32.68
2019-06-15T11:57:53.314Z,32.47
2019-06-15T12:00:31.370Z,33.18
2019-06-15T12:02:51.288Z,32.50
2019-06-15T12:05:17.548Z,32.71
2019-06-15T12:07:43.674Z,32.80
2019-06-15T12:10:09.822Z,32.94
2019-06-15T12:12:36.024Z,33.01
2019-06-15T12:15:04.075Z,31.36
2019-06-15T12:17:32.149Z,32.03
2019-06-15T12:19:58.291Z,34.32
2019-06-15T12:22:24.456Z,33.96
2019-06-15T12:24:51.693Z,33.68
2019-06-15T12:27:17.818Z,33.37
2019-06-15T12:29:44.080Z,33.67
2019-06-15T12:32:10.306Z,32.98
2019-06-15T12:34:36.535Z,33.07
2019-06-15T12:37:03.179Z,33.76
2019-06-15T12:39:29.285Z,33.38
2019-06-15T12:41:57.361Z,32.98
2019-06-15T12:44:25.419Z,33.04
2019-06-15T12:46:51.663Z,32.38
2019-06-15T12:49:17.924Z,33.28
2019-06-15T12:51:44.174Z,33.41
2019-06-15T12:54:10.414Z,33.23
2019-06-15T12:56:36.651Z,33.15
2019-06-15T12:59:02.897Z,32.17
2019-06-15T13:01:29.138Z,30.48
2019-06-15T13:03:55.376Z,32.43
2019-06-15T13:06:21.506Z,31.37
2019-06-15T13:08:47.753Z,32.63
2019-06-15T13:11:14.004Z,31.71
2019-06-15T13:13:40.142Z,31.88
2019-06-15T13:16:06.278Z,32.55
2019-06-15T13:18:32.499Z,31.39
2019-06-15T13:20:58.651Z,29.57
2019-06-15T13:23:24.875Z,30.50
2019-06-15T13:25:51.181Z,29.75
2019-06-15T13:28:17.385Z,29.13
2019-06-15T13:30:47.008Z,30.15
2019-06-15T13:33:13.252Z,29.78
2019-06-15T13:35:42.025Z,29.38
2019-06-15T13:38:08.276Z,29.69
2019-06-15T13:40:34.549Z,31.46
2019-06-15T13:43:00.671Z,31.48
2019-06-15T13:45:26.820Z,32.06
2019-06-15T13:47:53.065Z,32.58
2019-06-15T13:50:19.222Z,31.53
2019-06-15T13:52:45.458Z,31.87
2019-06-15T13:55:12.508Z,32.59
2019-06-15T13:57:38.636Z,31.55
2019-06-15T14:00:05.960Z,32.04
2019-06-15T14:02:32.211Z,33.11
2019-06-15T14:04:58.428Z,32.68
2019-06-15T14:07:24.669Z,32.98
2019-06-15T14:09:50.917Z,33.59
2019-06-15T14:12:17.061Z,33.93
2019-06-15T14:14:43.301Z,33.54
2019-06-15T14:17:09.550Z,33.72
2019-06-15T14:19:35.683Z,33.45
2019-06-15T14:22:01.839Z,32.63
2019-06-15T14:24:28.572Z,33.08
2019-06-15T14:26:54.697Z,33.40
2019-06-15T14:29:20.942Z,32.62
2019-06-15T14:31:50.471Z,33.43
2019-06-15T14:34:15.317Z,33.39
2019-06-15T14:36:41.462Z,33.32
2019-06-15T14:39:07.740Z,33.40
2019-06-15T14:41:33.868Z,33.53
2019-06-15T14:44:00.019Z,34.45
2019-06-15T14:46:26.354Z,33.86
2019-06-15T14:48:52.593Z,33.43
2019-06-15T14:51:18.858Z,34.73
2019-06-15T14:53:49.843Z,34.33
2019-06-15T14:56:16.042Z,35.80
2019-06-15T14:58:42.044Z,36.38
2019-06-15T15:01:08.302Z,35.51
2019-06-15T15:03:37.439Z,36.10
2019-06-15T15:06:02.674Z,36.40
2019-06-15T15:08:28.920Z,36.71
2019-06-15T15:10:56.294Z,36.42
2019-06-15T15:13:22.690Z,36.59
2019-06-15T15:15:53.130Z,36.03
2019-06-15T15:18:19.609Z,36.82
2019-06-15T15:20:45.809Z,37.19
2019-06-15T15:23:12.056Z,37.40
2019-06-15T15:25:38.311Z,38.81
2019-06-15T15:28:07.181Z,38.11
2019-06-15T15:30:38.482Z,38.34
2019-06-15T15:33:06.789Z,37.05
2019-06-15T15:35:32.960Z,38.13
2019-06-15T15:37:59.194Z,38.17
2019-06-15T15:40:27.455Z,38.55
2019-06-15T15:42:56.109Z,39.60
2019-06-15T15:45:21.749Z,39.40
2019-06-15T15:47:47.968Z,40.13
2019-06-15T15:50:17.490Z,40.21
2019-06-15T15:52:42.463Z,40.96
2019-06-15T15:55:08.698Z,40.21
2019-06-15T15:57:36.334Z,40.54
2019-06-15T16:00:07.377Z,40.43
2019-06-15T16:02:45.420Z,40.65
2019-06-15T16:05:01.672Z,40.88
2019-06-15T16:07:28.087Z,41.50
2019-06-15T16:09:54.342Z,41.21
2019-06-15T16:12:20.595Z,40.91
2019-06-15T16:14:46.843Z,40.58
2019-06-15T16:17:13.079Z,40.24
2019-06-15T16:19:39.329Z,39.99
2019-06-15T16:22:05.561Z,39.71
2019-06-15T16:24:31.822Z,39.40
2019-06-15T16:26:58.050Z,39.38
2019-06-15T16:29:24.276Z,38.59
2019-06-15T16:31:50.531Z,38.01
2019-06-15T16:34:16.790Z,37.64
2019-06-15T16:36:43.040Z,38.74
2019-06-15T16:39:09.279Z,38.54
2019-06-15T16:41:36.437Z,40.06
2019-06-15T16:44:02.779Z,38.47
2019-06-15T16:46:29.021Z,38.91
2019-06-15T16:48:55.968Z,38.67
2019-06-15T16:51:22.420Z,38.65
2019-06-15T16:53:48.665Z,38.71
2019-06-15T16:56:16.624Z,39.81
2019-06-15T16:58:43.067Z,39.08
2019-06-15T17:01:09.313Z,38.22
2019-06-15T17:03:36.675Z,39.70
2019-06-15T17:06:06.887Z,40.11
2019-06-15T17:08:32.037Z,41.66
2019-06-15T17:10:58.277Z,42.10
2019-06-15T17:13:26.055Z,41.76
2019-06-15T17:15:52.476Z,42.32
2019-06-15T17:18:18.705Z,42.54
2019-06-15T17:20:51.772Z,43.26
2019-06-15T17:23:18.124Z,43.81
2019-06-15T17:25:44.257Z,43.92
2019-06-15T17:28:10.504Z,44.26
2019-06-15T17:30:37.088Z,45.08
2019-06-15T17:33:05.211Z,45.57
2019-06-15T17:35:31.570Z,45.76
2019-06-15T17:37:57.830Z,46.02
2019-06-15T17:40:24.067Z,46.29
2019-06-15T17:42:50.369Z,46.71
2019-06-15T17:45:16.644Z,46.88
2019-06-15T17:47:42.864Z,47.46
2019-06-15T17:50:09.409Z,47.39
2019-06-15T17:52:36.098Z,47.95
2019-06-15T17:55:06.979Z,48.07
2019-06-15T17:57:32.935Z,48.24
2019-06-15T17:59:59.158Z,48.52
2019-06-15T18:02:26.266Z,48.87
2019-06-15T18:04:52.541Z,49.69
2019-06-15T18:07:18.809Z,49.88
2019-06-15T18:09:46.586Z,50.36
2019-06-15T18:12:13.088Z,50.77
2019-06-15T18:14:39.351Z,51.31
2019-06-15T18:17:07.222Z,51.78
2019-06-15T18:19:33.724Z,52.21
2019-06-15T18:21:59.976Z,53.43
2019-06-15T18:24:26.697Z,53.24
2019-06-15T18:26:53.057Z,53.83
2019-06-15T18:29:19.203Z,54.69
2019-06-15T18:31:45.459Z,54.32
2019-06-15T18:34:13.267Z,54.62
2019-06-15T18:36:39.825Z,54.89
2019-06-15T18:39:06.281Z,55.08
2019-06-15T18:41:32.583Z,55.19
2019-06-15T18:43:58.820Z,55.32
2019-06-15T18:46:27.314Z,55.52
2019-06-15T18:48:53.538Z,55.48
2019-06-15T18:51:19.797Z,56.05
2019-06-15T18:53:46.552Z,56.16
2019-06-15T18:56:12.999Z,57.01
2019-06-15T18:58:39.269Z,57.09
2019-06-15T19:01:06.920Z,57.02
2019-06-15T19:03:33.580Z,57.08
2019-06-15T19:05:59.829Z,57.43
2019-06-15T19:08:26.191Z,57.83
2019-06-15T19:10:52.460Z,58.00
2019-06-15T19:13:18.691Z,58.42
2019-06-15T19:15:46.424Z,58.75
2019-06-15T19:18:13.274Z,59.47
2019-06-15T19:20:39.562Z,59.93
2019-06-15T19:23:06.826Z,60.13
2019-06-15T19:25:36.130Z,61.59
2019-06-15T19:28:01.733Z,61.59
2019-06-15T19:30:27.941Z,62.01
2019-06-15T19:32:56.524Z,62.23
2019-06-15T19:35:22.337Z,63.37
2019-06-15T19:37:48.591Z,63.37
2019-06-15T19:40:16.179Z,63.88
2019-06-15T19:42:42.579Z,64.62
2019-06-15T19:45:10.671Z,64.86
2019-06-15T19:47:37.927Z,65.84
2019-06-15T19:50:06.548Z,65.99
2019-06-15T19:52:35.920Z,67.02
2019-06-15T19:55:01.892Z,68.09
2019-06-15T19:57:28.200Z,68.09
2019-06-15T19:59:56.169Z,68.63
2019-06-15T20:02:22.595Z,68.63
2019-06-15T20:05:00.349Z,69.04
2019-06-15T20:07:17.144Z,69.03
2019-06-15T20:09:43.382Z,69.31
2019-06-15T20:12:18.288Z,71.83
2019-06-15T20:14:37.768Z,70.27
2019-06-15T20:17:04.017Z,71.03
2019-06-15T20:19:30.278Z,71.56
2019-06-15T20:21:56.944Z,72.01
2019-06-15T20:24:27.003Z,72.76
2019-06-15T20:26:52.710Z,72.53
2019-06-15T20:29:18.954Z,72.41
2019-06-15T20:31:46.277Z,72.57
2019-06-15T20:34:12.703Z,72.95
2019-06-15T20:36:38.955Z,74.15
2019-06-15T20:39:08.103Z,73.97
2019-06-15T20:41:36.401Z,74.42
2019-06-15T20:44:03.071Z,75.68
2019-06-15T20:46:29.224Z,75.25
2019-06-15T20:48:56.499Z,76.44
2019-06-15T20:51:22.900Z,76.71
2019-06-15T20:53:49.140Z,76.65
2019-06-15T20:56:17.090Z,77.08
2019-06-15T20:58:43.313Z,77.60
2019-06-15T21:01:09.437Z,77.23
2019-06-15T21:03:36.656Z,77.29
2019-06-15T21:06:03.213Z,77.44
2019-06-15T21:08:29.450Z,77.79
2019-06-15T21:10:56.372Z,78.76
2019-06-15T21:13:22.799Z,77.68
2019-06-15T21:15:49.044Z,78.48
2019-06-15T21:18:15.190Z,78.41
2019-06-15T21:20:41.433Z,80.79
2019-06-15T21:23:07.559Z,78.96
2019-06-15T21:25:33.806Z,79.49
2019-06-15T21:28:00.050Z,79.19
2019-06-15T21:30:27.068Z,80.00
2019-06-15T21:32:55.839Z,80.53
2019-06-15T21:35:21.608Z,81.94
2019-06-15T21:37:47.854Z,82.20
2019-06-15T21:40:15.999Z,81.37
2019-06-15T21:42:42.430Z,82.12
2019-06-15T21:45:08.763Z,85.03
2019-06-15T21:47:37.205Z,83.74
2019-06-15T21:50:06.475Z,85.58
2019-06-15T21:52:32.702Z,85.13
2019-06-15T21:54:58.942Z,85.29
2019-06-15T21:57:26.859Z,84.36
2019-06-15T21:59:53.307Z,85.15
2019-06-15T22:02:19.564Z,84.81
2019-06-15T22:04:46.182Z,84.33
2019-06-15T22:07:12.411Z,85.63
2019-06-15T22:09:38.647Z,84.72
2019-06-15T22:12:06.839Z,85.41
2019-06-15T22:14:33.032Z,86.80
2019-06-15T22:16:59.767Z,86.34
2019-06-15T22:19:26.284Z,85.71
2019-06-15T22:21:52.698Z,86.01
2019-06-15T22:24:18.947Z,85.68
2019-06-15T22:26:46.738Z,85.20
2019-06-15T22:29:13.219Z,85.78
2019-06-15T22:31:39.447Z,88.03
2019-06-15T22:34:06.580Z,88.62
2019-06-15T22:36:32.934Z,87.54
2019-06-15T22:38:59.178Z,88.66
2019-06-15T22:41:25.310Z,88.49
2019-06-15T22:43:51.553Z,87.34
2019-06-15T22:46:17.787Z,87.60
2019-06-15T22:48:46.806Z,88.71
2019-06-15T22:51:12.580Z,88.28
2019-06-15T22:53:38.795Z,88.83
2019-06-15T22:56:06.625Z,87.71
2019-06-15T22:58:33.121Z,88.71
2019-06-15T23:00:59.244Z,88.52
2019-06-15T23:03:26.202Z,89.78
2019-06-15T23:05:52.532Z,89.53
2019-06-15T23:08:18.756Z,88.99
2019-06-15T23:10:46.891Z,89.89
2019-06-15T23:13:13.121Z,88.74
2019-06-15T23:15:39.245Z,90.50
2019-06-15T23:18:06.722Z,89.07
2019-06-15T23:20:33.148Z,89.08
2019-06-15T23:22:59.384Z,88.93
2019-06-15T23:25:27.472Z,90.12
2019-06-15T23:27:56.206Z,89.51
2019-06-15T23:30:21.834Z,89.99
2019-06-15T23:32:48.063Z,89.31
2019-06-15T23:35:16.648Z,89.66
2019-06-15T23:37:42.650Z,88.53
2019-06-15T23:40:23.244Z,89.35
2019-06-15T23:42:49.682Z,89.22
2019-06-15T23:45:16.914Z,89.45
2019-06-15T23:47:43.146Z,89.58
2019-06-15T23:50:09.583Z,89.35
2019-06-15T23:52:36.292Z,89.68
2019-06-15T23:55:04.748Z,89.71
2019-06-15T23:57:30.994Z,89.44
2019-06-15T23:59:57.120Z,91.10
